Time;durP1;ratioP1;P1;durP2;ratioP2;P2;SDS_P1;SDS_P2;PMS_P1;PMS_P2;Temp;Humidity;BMP_temperature;BMP_pressure;BME280_temperature;BME280_humidity;BME280_pressure;Samples;Min_cycle;Max_cycle;Signal;HPM_P1;HPM_P2
2023/06/13 00:00:54;;;;;;;5.00;2.60;;;;;;;10.27;66.50;100661.23;104824;1267;75643;-65
2023/06/13 00:03:47;;;;;;;4.20;2.70;;;;;;;10.20;66.55;100651.84;104977;1260;83781;-65
2023/06/13 00:06:17;;;;;;;6.00;3.30;;;;;;;10.16;66.78;100650.92;104993;1260;73720;-62
2023/06/13 00:08:57;;;;;;;6.00;3.30;;;;;;;10.22;67.33;100655.97;104955;1260;69291;-65
2023/06/13 00:11:29;;;;;;;5.60;3.30;;;;;;;10.32;67.57;100652.88;104926;1264;69213;-65
2023/06/13 00:14:01;;;;;;;5.60;3.30;;;;;;;10.36;67.41;100648.20;104896;1262;74649;-63
2023/06/13 00:16:33;;;;;;;4.10;2.80;;;;;;;10.32;67.66;100653.41;104931;1260;82177;-68
2023/06/13 00:19:03;;;;;;;5.80;3.10;;;;;;;10.31;67.85;100653.27;104785;1267;73531;-63
2023/06/13 00:21:36;;;;;;;4.40;3.10;;;;;;;10.35;69.14;100654.54;104910;1264;69905;-63
2023/06/13 00:24:08;;;;;;;5.90;3.60;;;;;;;10.45;70.16;100654.89;104924;1261;69178;-63
2023/06/13 00:26:39;;;;;;;5.50;3.20;;;;;;;10.52;70.43;100649.45;104905;1265;75720;-65
2023/06/13 00:29:12;;;;;;;4.50;3.40;;;;;;;10.49;69.85;100642.73;104811;1262;85039;-65
2023/06/13 00:31:42;;;;;;;5.50;3.40;;;;;;;10.41;69.79;100640.17;104838;1263;73737;-67
2023/06/13 00:34:14;;;;;;;4.30;2.70;;;;;;;10.39;69.97;100638.88;104919;1260;69186;-65
2023/06/13 00:36:50;;;;;;;4.70;3.50;;;;;;;10.34;70.14;100638.85;104915;1260;69200;-65
2023/06/13 00:39:23;;;;;;;5.90;3.10;;;;;;;10.34;70.57;100639.73;104964;1265;75874;-64
2023/06/13 00:41:57;;;;;;;4.00;2.90;;;;;;;10.34;70.40;100635.19;104889;1265;83232;-65
2023/06/13 00:44:26;;;;;;;14.70;3.40;;;;;;;10.27;70.17;100630.66;104758;1262;72788;-65
2023/06/13 00:47:00;;;;;;;5.60;3.20;;;;;;;10.25;70.22;100623.55;104935;1265;69226;-64
2023/06/13 00:49:32;;;;;;;6.60;3.00;;;;;;;10.23;70.31;100619.61;104973;1261;69077;-61
2023/06/13 00:52:04;;;;;;;3.40;2.80;;;;;;;10.22;70.47;100614.58;104835;1260;75664;-66
2023/06/13 00:54:38;;;;;;;4.60;3.30;;;;;;;10.20;70.43;100614.63;104975;1262;83886;-64
2023/06/13 00:57:10;;;;;;;5.40;3.20;;;;;;;10.18;70.36;100609.30;104877;1260;73683;-63
2023/06/13 00:59:45;;;;;;;5.50;3.20;;;;;;;10.14;70.26;100608.02;104817;1261;69194;-65
2023/06/13 01:02:20;;;;;;;4.00;3.10;;;;;;;10.02;70.03;100605.59;104750;1267;69177;-65
2023/06/13 01:04:53;;;;;;;5.00;3.10;;;;;;;9.93;70.38;100606.39;104890;1266;74402;-64
2023/06/13 01:07:29;;;;;;;4.80;3.30;;;;;;;9.92;70.52;100605.92;104954;1261;82334;-62
2023/06/13 01:10:03;;;;;;;6.30;3.00;;;;;;;9.90;70.41;100601.97;104796;1263;72550;-65
2023/06/13 01:12:37;;;;;;;5.20;2.80;;;;;;;9.83;70.32;100602.70;104898;1260;69045;-63
2023/06/13 01:15:13;;;;;;;6.60;3.20;;;;;;;9.79;70.52;100602.48;104958;1265;69584;-63
2023/06/13 01:17:57;;;;;;;3.90;3.00;;;;;;;9.81;71.60;100602.75;104978;1260;74632;-64
2023/06/13 01:20:33;;;;;;;5.70;3.10;;;;;;;9.87;71.25;100598.38;104921;1263;82439;-65
2023/06/13 01:23:32;;;;;;;8.20;2.80;;;;;;;9.79;70.95;100593.23;104793;1261;73786;-70
2023/06/13 01:26:15;;;;;;;6.70;3.00;;;;;;;9.70;71.11;100586.52;104887;1266;69193;-66
2023/06/13 01:28:44;;;;;;;3.80;3.20;;;;;;;9.63;71.14;100583.59;104832;1261;69225;-63
2023/06/13 01:31:19;;;;;;;4.10;2.70;;;;;;;9.60;71.38;100580.52;104824;1263;75713;-63
2023/06/13 01:33:51;;;;;;;4.10;2.40;;;;;;;9.60;71.67;100579.13;104817;1268;82514;-64
2023/06/13 01:36:23;;;;;;;3.60;2.60;;;;;;;9.61;71.68;100580.84;104909;1261;74418;-68
2023/06/13 01:38:53;;;;;;;4.80;3.20;;;;;;;9.60;71.76;100575.32;104813;1266;70728;-66
2023/06/13 01:41:24;;;;;;;7.10;3.10;;;;;;;9.57;71.87;100574.70;104885;1263;69280;-66
2023/06/13 01:43:56;;;;;;;6.20;2.90;;;;;;;9.53;71.96;100575.88;105020;1260;75737;-63
2023/06/13 01:46:27;;;;;;;3.40;2.60;;;;;;;9.49;72.31;100578.09;104935;1260;83536;-63
2023/06/13 01:49:16;;;;;;;5.50;3.00;;;;;;;9.51;72.97;100581.15;104978;1263;73725;-66
2023/06/13 01:51:55;;;;;;;8.80;3.70;;;;;;;9.62;73.93;100585.36;104848;1265;69216;-63
2023/06/13 01:54:28;;;;;;;4.40;3.30;;;;;;;9.73;74.23;100587.63;104797;1261;69174;-64
2023/06/13 01:57:01;;;;;;;5.20;3.20;;;;;;;9.79;74.31;100591.64;104834;1268;75575;-65
2023/06/13 01:59:32;;;;;;;5.70;3.40;;;;;;;9.85;74.33;100592.35;104875;1263;83587;-65
2023/06/13 02:02:02;;;;;;;4.90;3.60;;;;;;;9.95;74.59;100597.45;104763;1263;73902;-66
2023/06/13 02:04:39;;;;;;;7.50;3.80;;;;;;;10.10;74.62;100604.33;104966;1260;69250;-64
2023/06/13 02:07:12;;;;;;;5.70;3.80;;;;;;;10.11;73.17;100606.02;104805;1267;69186;-64
2023/06/13 02:09:43;;;;;;;8.30;3.70;;;;;;;9.98;71.99;100602.95;104968;1262;75776;-64
2023/06/13 02:12:15;;;;;;;7.80;3.70;;;;;;;9.84;71.74;100599.88;105046;1265;82341;-64
2023/06/13 02:14:43;;;;;;;5.50;3.20;;;;;;;9.72;71.82;100604.79;104978;1263;72828;-63
2023/06/13 02:17:16;;;;;;;7.00;3.70;;;;;;;9.63;72.02;100611.84;104944;1261;69375;-66
2023/06/13 02:19:47;;;;;;;7.30;4.10;;;;;;;9.63;72.51;100615.00;104973;1261;69154;-65
2023/06/13 02:22:19;;;;;;;5.10;3.90;;;;;;;9.61;72.58;100614.16;104988;1260;74979;-66
2023/06/13 02:24:50;;;;;;;6.40;4.00;;;;;;;9.57;72.28;100612.38;104966;1265;83555;-63
2023/06/13 02:27:19;;;;;;;4.90;3.70;;;;;;;9.56;72.56;100614.33;104858;1261;73557;-65
2023/06/13 02:29:51;;;;;;;5.20;3.40;;;;;;;9.54;72.35;100612.64;104941;1261;69237;-64
2023/06/13 02:32:23;;;;;;;7.90;3.80;;;;;;;9.56;72.36;100609.11;105001;1265;69200;-66
2023/06/13 02:34:55;;;;;;;10.20;4.10;;;;;;;9.55;72.20;100608.96;105012;1262;75404;-64
2023/06/13 02:37:24;;;;;;;6.00;4.30;;;;;;;9.47;72.08;100603.61;104956;1265;83302;-65
2023/06/13 02:39:52;;;;;;;6.20;4.00;;;;;;;9.41;72.02;100599.61;104968;1260;73858;-66
2023/06/13 02:42:24;;;;;;;4.70;3.90;;;;;;;9.41;72.01;100598.04;104852;1267;69252;-65
2023/06/13 02:44:59;;;;;;;4.80;3.50;;;;;;;9.42;72.48;100599.06;104898;1261;69237;-67
2023/06/13 02:47:33;;;;;;;7.40;3.80;;;;;;;9.44;72.88;100599.16;104925;1265;74716;-64
2023/06/13 02:50:02;;;;;;;5.00;3.30;;;;;;;9.47;73.13;100602.75;104797;1262;83359;-67
2023/06/13 02:52:34;;;;;;;8.40;4.00;;;;;;;9.48;73.28;100605.68;104993;1263;71794;-66
2023/06/13 02:55:08;;;;;;;5.10;3.90;;;;;;;9.51;73.49;100604.18;104973;1263;69208;-66
2023/06/13 02:57:40;;;;;;;6.10;3.70;;;;;;;9.54;73.64;100597.30;104948;1265;69216;-65
2023/06/13 03:00:11;;;;;;;7.90;3.80;;;;;;;9.57;73.69;100596.15;104961;1265;75666;-68
2023/06/13 03:02:46;;;;;;;6.60;4.00;;;;;;;9.63;73.78;100597.37;104773;1263;83193;-63
2023/06/13 03:05:16;;;;;;;6.70;3.90;;;;;;;9.70;73.76;100598.20;104996;1261;73409;-64
2023/06/13 03:07:51;;;;;;;5.40;3.60;;;;;;;9.77;73.81;100594.67;105009;1261;69222;-63
2023/06/13 03:10:25;;;;;;;6.10;3.60;;;;;;;9.83;73.61;100581.78;104970;1265;69148;-63
2023/06/13 03:12:53;;;;;;;4.80;3.60;;;;;;;9.83;72.95;100578.25;104976;1262;74121;-67
2023/06/13 03:15:23;;;;;;;7.60;3.60;;;;;;;9.87;72.99;100580.05;104931;1264;82439;-66
2023/06/13 03:17:55;;;;;;;7.80;3.90;;;;;;;9.92;73.23;100585.67;104744;1265;72810;-66
2023/06/13 03:20:23;;;;;;;4.40;3.60;;;;;;;9.97;73.30;100588.48;104785;1262;69233;-64
2023/06/13 03:23:00;;;;;;;9.50;4.60;;;;;;;10.01;73.32;100583.98;105035;1265;69208;-62
2023/06/13 03:25:29;;;;;;;4.60;3.70;;;;;;;10.04;73.01;100585.29;104933;1262;74676;-62
2023/06/13 03:28:01;;;;;;;10.90;4.60;;;;;;;10.10;73.09;100584.07;104817;1261;83586;-66
2023/06/13 03:30:30;;;;;;;5.50;3.70;;;;;;;10.16;72.77;100586.82;104925;1261;72762;-62
2023/06/13 03:32:59;;;;;;;5.50;4.20;;;;;;;10.26;72.81;100586.33;104888;1262;69292;-63
2023/06/13 03:35:29;;;;;;;6.10;3.70;;;;;;;10.36;72.81;100587.06;104964;1265;69180;-64
2023/06/13 03:38:01;;;;;;;6.30;4.20;;;;;;;10.45;72.86;100583.63;104836;1266;74722;-67
2023/06/13 03:40:37;;;;;;;11.80;4.50;;;;;;;10.52;72.65;100579.21;104953;1265;83358;-62
2023/06/13 03:43:09;;;;;;;5.50;4.00;;;;;;;10.63;72.61;100583.02;104939;1263;72791;-62
2023/06/13 03:45:41;;;;;;;8.10;4.10;;;;;;;10.72;71.96;100579.23;104927;1265;69218;-64
2023/06/13 03:48:09;;;;;;;6.10;3.80;;;;;;;10.82;71.97;100580.77;104802;1263;69154;-63
2023/06/13 03:50:41;;;;;;;9.90;4.20;;;;;;;10.90;71.89;100578.94;104913;1265;74804;-62
2023/06/13 03:53:10;;;;;;;6.50;3.60;;;;;;;10.95;71.44;100581.73;104967;1264;83166;-63
2023/06/13 03:55:38;;;;;;;6.90;3.90;;;;;;;10.98;71.26;100583.73;104942;1265;73925;-61
2023/06/13 03:58:06;;;;;;;6.50;4.00;;;;;;;11.02;70.98;100582.55;104892;1263;69212;-60
2023/06/13 04:00:39;;;;;;;5.60;4.30;;;;;;;11.09;70.95;100582.45;104836;1265;69262;-59
2023/06/13 04:03:11;;;;;;;5.60;3.80;;;;;;;11.17;70.63;100580.23;104863;1261;75565;-59
2023/06/13 04:05:40;;;;;;;7.20;4.10;;;;;;;11.25;70.32;100581.71;104848;1265;83402;-59
2023/06/13 04:08:09;;;;;;;6.20;3.80;;;;;;;11.31;70.30;100586.39;104774;1263;73888;-61
2023/06/13 04:10:37;;;;;;;7.10;3.80;;;;;;;11.38;70.26;100590.11;104920;1263;69164;-55
2023/06/13 04:13:07;;;;;;;4.70;3.70;;;;;;;11.48;70.29;100587.14;104860;1265;69202;-59
2023/06/13 04:15:36;;;;;;;4.60;3.90;;;;;;;11.56;70.07;100589.83;104904;1262;74859;-58
2023/06/13 04:18:05;;;;;;;6.60;3.80;;;;;;;11.64;70.01;100589.86;104945;1263;83404;-66
2023/06/13 04:20:35;;;;;;;5.20;3.90;;;;;;;11.71;69.87;100589.94;105010;1263;72803;-61
2023/06/13 04:23:03;;;;;;;7.00;4.30;;;;;;;11.77;69.85;100588.10;105037;1265;69183;-64
2023/06/13 04:25:32;;;;;;;8.70;3.90;;;;;;;11.81;69.69;100587.60;104888;1263;69290;-61
2023/06/13 04:28:01;;;;;;;5.70;4.30;;;;;;;11.87;69.85;100588.28;104961;1263;75715;-62
2023/06/13 04:30:30;;;;;;;7.20;4.60;;;;;;;11.93;69.63;100584.02;104857;1265;83510;-61
2023/06/13 04:33:05;;;;;;;6.10;4.30;;;;;;;11.99;69.30;100583.95;104938;1262;72305;-60
2023/06/13 04:35:44;;;;;;;6.60;4.50;;;;;;;12.03;69.12;100581.69;104961;1265;69263;-61
2023/06/13 04:38:14;;;;;;;7.40;4.40;;;;;;;12.10;69.02;100580.22;105018;1264;69206;-62
2023/06/13 04:40:43;;;;;;;8.20;4.70;;;;;;;12.15;68.69;100582.80;104911;1263;74626;-64
2023/06/13 04:43:14;;;;;;;7.60;4.90;;;;;;;12.23;68.65;100588.61;104971;1261;83354;-62
2023/06/13 04:45:43;;;;;;;11.00;4.50;;;;;;;12.32;68.53;100588.43;104891;1265;73191;-64
2023/06/13 04:48:13;;;;;;;6.10;4.30;;;;;;;12.38;68.47;100585.73;104957;1263;69172;-63
2023/06/13 04:50:41;;;;;;;7.90;4.50;;;;;;;12.43;68.12;100583.20;105089;1261;69145;-62
2023/06/13 04:53:16;;;;;;;6.60;4.20;;;;;;;12.50;67.65;100582.05;105134;1263;75839;-63
2023/06/13 04:55:44;;;;;;;8.30;4.10;;;;;;;12.59;67.76;100576.95;104943;1263;83448;-61
2023/06/13 04:58:12;;;;;;;7.80;4.60;;;;;;;12.68;67.51;100574.95;104761;1265;72742;-64
2023/06/13 05:00:41;;;;;;;7.20;4.60;;;;;;;12.76;67.16;100571.48;105087;1263;69273;-60
2023/06/13 05:03:16;;;;;;;8.20;4.70;;;;;;;12.82;66.52;100572.98;105036;1265;69196;-61
2023/06/13 05:05:46;;;;;;;5.80;4.40;;;;;;;12.85;66.21;100573.19;105132;1265;75462;-62
2023/06/13 05:08:19;;;;;;;6.10;4.60;;;;;;;12.87;65.80;100573.30;105023;1263;83510;-62
2023/06/13 05:10:48;;;;;;;5.30;4.50;;;;;;;12.89;65.75;100571.27;105039;1263;71867;-62
2023/06/13 05:13:16;;;;;;;12.10;4.50;;;;;;;12.93;65.93;100569.33;104953;1265;69141;-61
2023/06/13 05:15:45;;;;;;;6.40;4.50;;;;;;;12.98;65.97;100569.46;105279;1265;69212;-61
2023/06/13 05:18:13;;;;;;;5.80;4.70;;;;;;;13.07;66.00;100563.82;104967;1263;75645;-61
2023/06/13 05:20:43;;;;;;;5.80;4.60;;;;;;;13.17;65.81;100560.71;104851;1262;82604;-66
2023/06/13 05:23:13;;;;;;;9.50;4.80;;;;;;;13.24;65.69;100559.17;104832;1263;73620;-64
2023/06/13 05:25:42;;;;;;;7.10;4.20;;;;;;;13.32;65.71;100560.75;104978;1265;69219;-64
2023/06/13 05:28:10;;;;;;;6.50;4.70;;;;;;;13.45;65.91;100559.66;104882;1265;69407;-59
2023/06/13 05:30:39;;;;;;;5.70;4.70;;;;;;;13.57;65.56;100559.80;104847;1263;75640;-60
2023/06/13 05:33:08;;;;;;;8.50;4.80;;;;;;;13.67;65.49;100557.20;104969;1262;82510;-62
2023/06/13 05:35:36;;;;;;;8.80;5.30;;;;;;;13.80;65.26;100563.96;104945;1262;73898;-62
2023/06/13 05:38:25;;;;;;;9.30;4.80;;;;;;;13.87;64.37;100569.45;104946;1261;69289;-63
2023/06/13 05:40:53;;;;;;;7.50;5.70;;;;;;;13.90;64.38;100572.80;104940;1264;69128;-67
2023/06/13 05:43:21;;;;;;;8.90;5.40;;;;;;;13.95;64.25;100580.64;104837;1265;75719;-63
2023/06/13 05:45:50;;;;;;;6.70;5.10;;;;;;;13.99;64.82;100583.77;104787;1265;83411;-61
2023/06/13 05:48:19;;;;;;;6.20;5.40;;;;;;;14.06;64.54;100587.31;104946;1265;73737;-61
2023/06/13 05:50:47;;;;;;;7.70;5.50;;;;;;;14.10;64.21;100583.42;104941;1264;69197;-60
2023/06/13 05:53:16;;;;;;;7.30;5.40;;;;;;;14.11;63.92;100573.89;104965;1265;69188;-60
2023/06/13 05:55:44;;;;;;;8.80;5.50;;;;;;;14.14;63.94;100565.65;105023;1261;75566;-60
2023/06/13 05:58:13;;;;;;;8.10;4.80;;;;;;;14.18;63.74;100567.05;104933;1265;233433;-60
2023/06/13 06:00:42;;;;;;;10.00;5.30;;;;;;;14.22;63.92;100569.11;104861;1263;73707;-61
2023/06/13 06:03:11;;;;;;;10.80;5.70;;;;;;;14.33;63.95;100568.93;104874;1262;69223;-61
2023/06/13 06:05:40;;;;;;;6.00;5.10;;;;;;;14.37;63.76;100561.90;104909;1265;69273;-60
2023/06/13 06:08:08;;;;;;;7.60;4.60;;;;;;;14.40;63.65;100551.38;104978;1263;76232;-62
2023/06/13 06:10:37;;;;;;;12.30;5.70;;;;;;;14.39;63.18;100550.90;105299;1265;83162;-63
2023/06/13 06:13:05;;;;;;;7.30;5.50;;;;;;;14.35;63.21;100556.19;104903;1262;73844;-62
2023/06/13 06:15:35;;;;;;;7.20;5.60;;;;;;;14.39;63.49;100561.44;104965;1261;69553;-62
2023/06/13 06:18:04;;;;;;;6.40;4.80;;;;;;;14.48;63.74;100560.63;105208;1265;69142;-62
2023/06/13 06:20:32;;;;;;;7.30;5.30;;;;;;;14.58;63.67;100556.45;104933;1265;75522;-62
2023/06/13 06:23:01;;;;;;;7.80;5.40;;;;;;;14.63;63.34;100553.20;104984;1265;83326;-61
2023/06/13 06:25:29;;;;;;;9.70;5.50;;;;;;;14.67;63.32;100560.23;104955;1265;73960;-61
2023/06/13 06:27:58;;;;;;;10.30;6.50;;;;;;;14.69;63.41;100573.27;104982;1260;69145;-63
2023/06/13 06:30:28;;;;;;;8.30;4.90;;;;;;;14.73;63.42;100575.02;105201;1262;69210;-63
2023/06/13 06:32:58;;;;;;;14.30;5.50;;;;;;;14.80;63.44;100570.81;105135;1262;75686;-66
2023/06/13 06:35:27;;;;;;;7.70;5.70;;;;;;;14.88;63.50;100573.35;104982;1265;83345;-65
2023/06/13 06:37:55;;;;;;;8.20;5.40;;;;;;;14.96;63.25;100575.95;104960;1262;73810;-64
2023/06/13 06:40:24;;;;;;;7.30;5.60;;;;;;;15.01;63.38;100579.02;104903;1263;69234;-55
2023/06/13 06:42:52;;;;;;;11.90;5.80;;;;;;;15.08;63.31;100581.82;104961;1265;69131;-60
2023/06/13 06:45:27;;;;;;;8.90;5.40;;;;;;;15.16;63.38;100573.48;104991;1262;75460;-56
2023/06/13 06:47:56;;;;;;;14.30;5.70;;;;;;;15.20;63.03;100579.79;105033;1265;83293;-57
2023/06/13 06:50:25;;;;;;;8.90;6.10;;;;;;;15.22;62.94;100582.86;104867;1262;73574;-56
2023/06/13 06:52:53;;;;;;;8.10;6.30;;;;;;;15.25;62.74;100582.71;104912;1262;69317;-57
2023/06/13 06:55:21;;;;;;;7.10;5.40;;;;;;;15.26;62.79;100579.61;105102;1263;69206;-55
2023/06/13 06:57:53;;;;;;;17.70;6.40;;;;;;;15.28;62.82;100574.80;104908;1265;74684;-54
2023/06/13 07:00:22;;;;;;;7.90;5.50;;;;;;;15.32;62.81;100579.30;105018;1263;83435;-53
2023/06/13 07:02:51;;;;;;;9.80;5.50;;;;;;;15.37;62.65;100584.67;104957;1263;73787;-57
2023/06/13 07:05:20;;;;;;;7.90;5.60;;;;;;;15.46;62.72;100584.73;105117;1266;69457;-55
2023/06/13 07:07:48;;;;;;;8.20;5.70;;;;;;;15.55;62.73;100586.36;104923;1261;69189;-53
2023/06/13 07:10:17;;;;;;;10.70;5.20;;;;;;;15.63;62.57;100584.52;104805;1263;74633;-54
2023/06/13 07:12:45;;;;;;;8.40;5.10;;;;;;;15.68;62.75;100588.30;104801;1265;83538;-58
2023/06/13 07:15:14;;;;;;;8.70;5.90;;;;;;;15.74;62.66;100592.04;104913;1263;74208;-56
2023/06/13 07:17:42;;;;;;;9.30;5.90;;;;;;;15.76;62.39;100588.90;104860;1264;69039;-57
2023/06/13 07:20:13;;;;;;;6.70;5.40;;;;;;;15.84;62.47;100588.10;104904;1265;69546;-57
2023/06/13 07:22:42;;;;;;;8.60;5.50;;;;;;;15.95;62.57;100590.35;104907;1260;74725;-57
2023/06/13 07:25:11;;;;;;;10.10;5.70;;;;;;;16.08;62.55;100588.38;104908;1265;82325;-57
2023/06/13 07:27:39;;;;;;;8.40;5.10;;;;;;;16.17;62.11;100590.49;104832;1263;74337;-58
2023/06/13 07:30:08;;;;;;;7.90;4.90;;;;;;;16.30;61.84;100584.65;104963;1265;69138;-57
2023/06/13 07:32:37;;;;;;;7.00;4.80;;;;;;;16.38;61.44;100586.31;105053;1263;69127;-57
2023/06/13 07:35:06;;;;;;;6.40;5.10;;;;;;;16.37;61.16;100584.73;104859;1265;74510;-56
2023/06/13 07:37:35;;;;;;;5.80;4.60;;;;;;;16.44;61.21;100583.27;104915;1264;83438;-58
2023/06/13 07:40:07;;;;;;;7.70;4.90;;;;;;;16.56;60.87;100590.34;105027;1265;73830;-57
2023/06/13 07:42:35;;;;;;;6.10;4.50;;;;;;;16.62;60.21;100588.09;105023;1263;69519;-56
2023/06/13 07:45:05;;;;;;;6.30;4.60;;;;;;;16.66;60.04;100588.17;104959;1265;69179;-58
2023/06/13 07:47:35;;;;;;;6.10;4.90;;;;;;;16.75;60.06;100587.98;105117;1265;75372;-57
2023/06/13 07:50:04;;;;;;;5.90;4.50;;;;;;;16.85;59.68;100588.09;105026;1265;83796;-58
2023/06/13 07:52:33;;;;;;;7.20;4.50;;;;;;;16.87;59.43;100586.59;104992;1265;71713;-58
2023/06/13 07:55:01;;;;;;;7.30;4.30;;;;;;;16.94;59.06;100587.19;105060;1266;69187;-57
2023/06/13 07:57:30;;;;;;;6.90;4.10;;;;;;;17.05;59.02;100584.80;104852;1263;69192;-58
2023/06/13 08:00:18;;;;;;;6.30;3.80;;;;;;;17.23;58.44;100581.56;104873;1262;74564;-58
2023/06/13 08:02:47;;;;;;;8.20;4.00;;;;;;;17.31;57.84;100579.81;104998;1265;83500;-58
2023/06/13 08:05:16;;;;;;;7.60;4.20;;;;;;;17.39;57.89;100581.09;104910;1264;73707;-58
2023/06/13 08:07:45;;;;;;;9.80;4.50;;;;;;;17.49;57.94;100580.63;105003;1261;69093;-58
2023/06/13 08:10:14;;;;;;;7.00;4.20;;;;;;;17.62;57.69;100580.55;104994;1265;69111;-57
2023/06/13 08:12:43;;;;;;;8.30;4.00;;;;;;;17.67;57.19;100580.44;104778;1263;74704;-59
2023/06/13 08:15:11;;;;;;;6.70;3.90;;;;;;;17.72;56.67;100579.18;104975;1267;81999;-59
2023/06/13 08:17:41;;;;;;;9.50;3.40;;;;;;;17.75;56.66;100579.73;104868;1265;73531;-59
2023/06/13 08:20:11;;;;;;;5.60;3.60;;;;;;;17.83;56.51;100576.40;105054;1263;69634;-57
2023/06/13 08:22:40;;;;;;;9.30;3.40;;;;;;;17.89;56.14;100574.06;104939;1264;69191;-59
2023/06/13 08:25:09;;;;;;;10.60;3.60;;;;;;;17.98;56.17;100571.17;104998;1263;74838;-59
2023/06/13 08:27:38;;;;;;;5.90;3.30;;;;;;;18.10;55.67;100568.84;104975;1266;83669;-61
2023/06/13 08:30:07;;;;;;;5.90;3.70;;;;;;;18.18;55.37;100569.18;104869;1263;74577;-60
2023/06/13 08:32:36;;;;;;;12.90;3.80;;;;;;;18.16;54.86;100571.22;104977;1263;69193;-59
2023/06/13 08:35:07;;;;;;;;;;;;;;;18.16;54.58;100564.33;104940;1265;69972;-58
2023/06/13 08:37:36;;;;;;;9.40;3.70;;;;;;;18.21;54.39;100558.15;104901;1263;75382;-60
2023/06/13 08:40:10;;;;;;;6.80;3.20;;;;;;;18.28;54.73;100558.92;104910;1265;83594;-62
2023/06/13 08:42:39;;;;;;;9.10;3.30;;;;;;;18.34;54.37;100560.30;104901;1266;72765;-60
2023/06/13 08:45:08;;;;;;;5.20;3.00;;;;;;;18.39;54.29;100561.04;104884;1263;69205;-59
2023/06/13 08:47:38;;;;;;;3.80;2.90;;;;;;;18.37;53.83;100562.42;104956;1265;69222;-59
2023/06/13 08:50:07;;;;;;;8.00;3.20;;;;;;;18.42;53.87;100566.15;104940;1265;74625;-59
2023/06/13 08:52:40;;;;;;;;;;;;;;;18.52;53.72;100562.10;104967;1266;83671;-60
2023/06/13 08:55:12;;;;;;;3.90;2.60;;;;;;;18.58;53.57;100559.42;104978;1265;73884;-60
2023/06/13 08:58:03;;;;;;;4.00;2.70;;;;;;;18.65;53.10;100560.52;104895;1265;69102;-60
2023/06/13 09:00:35;;;;;;;5.00;2.60;;;;;;;18.71;52.99;100563.98;104961;1260;69109;-60
2023/06/13 09:03:07;;;;;;;5.50;2.80;;;;;;;18.80;52.38;100567.66;104840;1266;75495;-61
2023/06/13 09:05:35;;;;;;;6.70;2.50;;;;;;;18.89;52.34;100566.90;104967;1260;82196;-61
2023/06/13 09:08:04;;;;;;;4.50;2.30;;;;;;;18.96;51.60;100569.98;104823;1266;73703;-60
2023/06/13 09:10:54;;;;;;;7.60;2.60;;;;;;;19.02;51.28;100576.28;104818;1263;69104;-60
2023/06/13 09:13:23;;;;;;;5.20;2.60;;;;;;;19.10;51.27;100578.39;104974;1265;69201;-59
2023/06/13 09:15:51;;;;;;;4.20;2.40;;;;;;;19.13;50.84;100577.21;104877;1263;74657;-58
2023/06/13 09:18:21;;;;;;;4.00;2.30;;;;;;;19.16;50.60;100576.52;104830;1266;83979;-60
2023/06/13 09:20:50;;;;;;;;;;;;;;;19.33;51.02;100574.43;104966;1265;73880;-60
2023/06/13 09:23:19;;;;;;;9.00;2.60;;;;;;;19.51;50.67;100577.27;104878;1265;69552;-59
2023/06/13 09:25:48;;;;;;;7.20;3.00;;;;;;;19.55;50.49;100573.55;105015;1265;69208;-61
2023/06/13 09:28:30;;;;;;;4.30;2.90;;;;;;;19.55;49.92;100569.99;104998;1265;75841;-62
2023/06/13 09:30:58;;;;;;;26.70;4.20;;;;;;;19.56;50.27;100574.91;104942;1262;81406;-64
2023/06/13 09:33:27;;;;;;;9.10;2.70;;;;;;;19.71;50.48;100572.25;104972;1265;71849;-62
2023/06/13 09:35:56;;;;;;;9.50;3.10;;;;;;;19.90;50.63;100570.17;104918;1263;69243;-61
2023/06/13 09:38:44;;;;;;;8.20;3.10;;;;;;;20.12;50.49;100568.88;104939;1265;69225;-60
2023/06/13 09:41:13;;;;;;;6.40;3.10;;;;;;;20.24;49.89;100570.84;104899;1261;74439;-61
2023/06/13 09:43:42;;;;;;;8.10;3.10;;;;;;;20.36;50.00;100566.05;104984;1265;83571;-60
2023/06/13 09:46:12;;;;;;;7.70;3.00;;;;;;;20.49;49.44;100563.50;104989;1263;72613;-61
2023/06/13 09:48:45;;;;;;;4.90;2.70;;;;;;;20.59;49.64;100560.08;104936;1264;69197;-59
2023/06/13 09:51:13;;;;;;;4.20;2.50;;;;;;;20.76;49.09;100562.68;104973;1266;69201;-58
2023/06/13 09:53:46;;;;;;;4.00;2.70;;;;;;;20.82;48.47;100564.87;105035;1266;75879;-61
2023/06/13 09:56:15;;;;;;;5.00;2.80;;;;;;;20.82;48.14;100563.49;104984;1262;83277;-63
2023/06/13 09:58:44;;;;;;;5.60;2.80;;;;;;;20.93;48.29;100565.81;104970;1263;73553;-60
2023/06/13 10:01:14;;;;;;;4.30;2.70;;;;;;;21.08;48.02;100563.03;105044;1265;69221;-64
2023/06/13 10:03:45;;;;;;;6.20;2.60;;;;;;;21.13;47.47;100554.80;104998;1266;69211;-61
2023/06/13 10:06:13;;;;;;;3.10;2.40;;;;;;;21.25;47.44;100556.58;105020;1261;75847;-59
2023/06/13 10:08:42;;;;;;;5.90;2.50;;;;;;;21.50;47.55;100557.94;105001;1266;83330;-61
2023/06/13 10:11:16;;;;;;;6.30;2.60;;;;;;;21.70;46.78;100557.06;105020;1266;72652;-59
2023/06/13 10:14:02;;;;;;;7.70;2.90;;;;;;;21.71;46.28;100557.68;105009;1266;69114;-62
2023/06/13 10:16:35;;;;;;;4.00;2.70;;;;;;;21.78;45.95;100554.83;104942;1267;69143;-61
2023/06/13 10:19:05;;;;;;;7.80;2.30;;;;;;;21.81;45.43;100552.23;104813;1266;74687;-61
2023/06/13 10:21:35;;;;;;;4.10;2.50;;;;;;;21.75;45.09;100551.49;104989;1265;83657;-59
2023/06/13 10:24:20;;;;;;;5.90;2.30;;;;;;;21.66;44.63;100549.42;104993;1265;72544;-60
2023/06/13 10:26:52;;;;;;;4.60;2.20;;;;;;;21.65;44.83;100548.42;104976;1262;69226;-63
2023/06/13 10:29:26;;;;;;;2.70;2.10;;;;;;;21.75;44.78;100553.80;104977;1265;69192;-59
2023/06/13 10:32:27;;;;;;;5.70;2.50;;;;;;;21.82;44.91;100550.17;104969;1261;75769;-58
2023/06/13 10:35:09;;;;;;;4.80;2.40;;;;;;;21.84;44.42;100551.45;105019;1264;83275;-61
2023/06/13 10:37:47;;;;;;;7.40;2.80;;;;;;;21.76;43.91;100553.16;104971;1273;73399;-63
2023/06/13 10:40:29;;;;;;;4.00;2.10;;;;;;;21.68;43.83;100548.67;104970;1263;69098;-60
2023/06/13 10:43:09;;;;;;;3.70;2.70;;;;;;;21.67;44.16;100548.77;105016;1262;69103;-64
2023/06/13 10:45:39;;;;;;;5.70;2.10;;;;;;;21.90;44.10;100547.23;105036;1266;75847;-59
2023/06/13 10:48:08;;;;;;;3.40;1.50;;;;;;;21.95;43.71;100548.65;104961;1263;82206;-64
2023/06/13 10:50:41;;;;;;;5.30;2.20;;;;;;;22.06;43.56;100550.91;104978;1265;73707;-60
2023/06/13 10:53:29;;;;;;;3.30;1.90;;;;;;;22.11;43.28;100553.52;105011;1266;69208;-61
2023/06/13 10:56:02;;;;;;;19.20;2.80;;;;;;;22.07;43.40;100550.98;104986;1262;69199;-64
2023/06/13 10:58:30;;;;;;;3.90;2.10;;;;;;;22.11;43.08;100553.04;104977;1266;74768;-62
2023/06/13 11:01:22;;;;;;;4.00;2.10;;;;;;;22.08;42.51;100554.15;105020;1265;83157;-59
2023/06/13 11:03:50;;;;;;;3.50;2.00;;;;;;;22.09;42.66;100554.42;104961;1266;72589;-61
2023/06/13 11:06:19;;;;;;;4.70;2.30;;;;;;;22.01;41.93;100551.29;104988;1274;69196;-61
2023/06/13 11:09:07;;;;;;;7.10;2.60;;;;;;;21.81;41.61;100545.13;104997;1265;69205;-63
2023/06/13 11:11:44;;;;;;;5.00;2.10;;;;;;;21.62;41.65;100544.17;104992;1269;75546;-62
2023/06/13 11:14:12;;;;;;;5.10;2.50;;;;;;;21.56;41.82;100544.10;104988;1261;83528;-59
2023/06/13 11:16:43;;;;;;;4.60;2.40;;;;;;;21.62;41.83;100541.84;104942;1260;72789;-60
2023/06/13 11:19:13;;;;;;;5.40;2.30;;;;;;;21.65;41.81;100541.84;104983;1265;69192;-65
2023/06/13 11:21:46;;;;;;;5.40;2.50;;;;;;;21.54;41.55;100539.14;104973;1266;69298;-61
2023/06/13 11:24:17;;;;;;;4.70;2.30;;;;;;;21.53;41.62;100535.49;104978;1260;74740;-60
2023/06/13 11:26:47;;;;;;;5.30;2.00;;;;;;;21.43;41.60;100533.46;104993;1265;83311;-60
2023/06/13 11:29:17;;;;;;;4.20;1.90;;;;;;;21.35;41.80;100534.08;104988;1266;73692;-60
2023/06/13 11:31:45;;;;;;;4.10;2.30;;;;;;;21.36;42.07;100534.31;104980;1265;69068;-61
2023/06/13 11:34:18;;;;;;;4.10;2.30;;;;;;;21.25;42.16;100531.15;104892;1266;69192;-62
2023/06/13 11:36:47;;;;;;;29.90;3.60;;;;;;;21.18;42.43;100530.83;105005;1266;74318;-62
2023/06/13 11:39:25;;;;;;;7.20;2.60;;;;;;;21.02;42.75;100533.08;104829;1266;82061;-64